Coleridge, North Carolina
Current Conditions -  °F | °C
As of 11:15 PM on Tuesday 25 Nov 2014 (Local Time) from K5W8 Reporting Station
Moderate Rain Moderate Rain  
Wind Chill:   Ceiling: 1800
Heat Index:   Visibility: 10mi
Dew Point:   Wind: 5mph
Humidity: 94%   Direction: 360°N
Pressure: 30.06"   Gusts: NA
Location:  35.6832°N, 79.6174°W
Report Text: K5W8 260415Z AUTO 36004KT 10SM RA BKN018 BKN035 OVC070 08/07 A3006 RMK AO2 T00830074
Loading
Personal Weather Stations






























Interactive Weather Map New forecast layout! Learn more

10-Day Weather Forecast

Advertisements
Track Severe Weather on mobile